Terminal Aerodrome Forecast
Issued by NWS

Home | Current Version | Previous Version | Text Only | Print | Product List | Glossary On
Versions: 1 2 3 4 5 6 7 8 9 10 11 12 13 14 15 16 17 18 19 20 21 22 23 24
000
FTUS41 KGYX 250524
TAFRKD
TAF
KRKD 250524Z 2506/2606 18012G20KT 1SM -RA BR OVC003
     FM251500 21015G28KT P6SM BKN050
     FM260000 25013KT P6SM SKC=

USA.gov is the U.S. government's official web portal to all federal, state and local government web resources and services.